sensor_id;sensor_type;location;lat;lon;timestamp;temperature;humidity
69189;DHT22;56302;52.322;5.926;2024-03-02T00:02:06;7.60;77.30
69189;DHT22;56302;52.322;5.926;2024-03-02T00:04:32;7.70;76.30
69189;DHT22;56302;52.322;5.926;2024-03-02T00:06:58;7.70;76.50
69189;DHT22;56302;52.322;5.926;2024-03-02T00:09:23;7.60;76.60
69189;DHT22;56302;52.322;5.926;2024-03-02T00:11:49;7.70;76.90
69189;DHT22;56302;52.322;5.926;2024-03-02T00:14:16;7.60;77.30
69189;DHT22;56302;52.322;5.926;2024-03-02T00:16:42;7.60;76.50
69189;DHT22;56302;52.322;5.926;2024-03-02T00:19:09;7.70;76.30
69189;DHT22;56302;52.322;5.926;2024-03-02T00:21:35;7.70;76.80
69189;DHT22;56302;52.322;5.926;2024-03-02T00:24:47;7.70;76.60
69189;DHT22;56302;52.322;5.926;2024-03-02T00:26:48;7.70;76.20
69189;DHT22;56302;52.322;5.926;2024-03-02T00:29:17;7.70;76.60
69189;DHT22;56302;52.322;5.926;2024-03-02T00:31:44;7.70;76.50
69189;DHT22;56302;52.322;5.926;2024-03-02T00:34:13;7.70;76.60
69189;DHT22;56302;52.322;5.926;2024-03-02T00:36:41;7.70;76.60
69189;DHT22;56302;52.322;5.926;2024-03-02T00:39:07;7.70;76.70
69189;DHT22;56302;52.322;5.926;2024-03-02T00:41:33;7.70;76.60
69189;DHT22;56302;52.322;5.926;2024-03-02T00:44:06;7.70;77.20
69189;DHT22;56302;52.322;5.926;2024-03-02T00:46:36;7.80;76.60
69189;DHT22;56302;52.322;5.926;2024-03-02T00:51:37;7.80;76.60
69189;DHT22;56302;52.322;5.926;2024-03-02T00:54:08;7.80;77.10
69189;DHT22;56302;52.322;5.926;2024-03-02T00:56:34;7.80;76.50
69189;DHT22;56302;52.322;5.926;2024-03-02T00:59:00;7.90;76.20
69189;DHT22;56302;52.322;5.926;2024-03-02T01:01:26;8.00;76.50
69189;DHT22;56302;52.322;5.926;2024-03-02T01:03:52;8.00;76.40
69189;DHT22;56302;52.322;5.926;2024-03-02T01:06:18;8.00;75.90
69189;DHT22;56302;52.322;5.926;2024-03-02T01:08:44;8.00;75.90
69189;DHT22;56302;52.322;5.926;2024-03-02T01:11:10;8.00;76.10
69189;DHT22;56302;52.322;5.926;2024-03-02T01:13:36;8.00;76.30
69189;DHT22;56302;52.322;5.926;2024-03-02T01:16:01;8.00;76.10
69189;DHT22;56302;52.322;5.926;2024-03-02T01:18:28;8.00;76.40
69189;DHT22;56302;52.322;5.926;2024-03-02T01:20:54;8.00;75.80
69189;DHT22;56302;52.322;5.926;2024-03-02T01:23:24;8.10;75.60
69189;DHT22;56302;52.322;5.926;2024-03-02T01:25:51;8.20;75.10
69189;DHT22;56302;52.322;5.926;2024-03-02T01:28:17;8.10;75.40
69189;DHT22;56302;52.322;5.926;2024-03-02T01:30:44;8.10;75.10
69189;DHT22;56302;52.322;5.926;2024-03-02T01:33:09;8.20;75.20
69189;DHT22;56302;52.322;5.926;2024-03-02T01:35:35;8.10;75.20
69189;DHT22;56302;52.322;5.926;2024-03-02T01:38:01;8.10;75.60
69189;DHT22;56302;52.322;5.926;2024-03-02T01:40:27;8.10;75.40
69189;DHT22;56302;52.322;5.926;2024-03-02T01:42:54;8.20;75.30
69189;DHT22;56302;52.322;5.926;2024-03-02T01:45:20;8.30;74.90
69189;DHT22;56302;52.322;5.926;2024-03-02T01:47:46;8.30;74.90
69189;DHT22;56302;52.322;5.926;2024-03-02T01:50:12;8.30;75.10
69189;DHT22;56302;52.322;5.926;2024-03-02T01:52:39;8.20;75.60
69189;DHT22;56302;52.322;5.926;2024-03-02T01:55:05;8.20;75.60
69189;DHT22;56302;52.322;5.926;2024-03-02T01:57:32;8.20;75.70
69189;DHT22;56302;52.322;5.926;2024-03-02T01:59:58;8.20;76.10
69189;DHT22;56302;52.322;5.926;2024-03-02T02:02:23;8.20;76.10
69189;DHT22;56302;52.322;5.926;2024-03-02T02:04:49;8.20;76.00
69189;DHT22;56302;52.322;5.926;2024-03-02T02:07:15;8.20;76.20
69189;DHT22;56302;52.322;5.926;2024-03-02T02:09:44;8.20;76.60
69189;DHT22;56302;52.322;5.926;2024-03-02T02:12:10;8.10;77.10
69189;DHT22;56302;52.322;5.926;2024-03-02T02:14:36;8.10;77.70
69189;DHT22;56302;52.322;5.926;2024-03-02T02:17:02;8.00;78.00
69189;DHT22;56302;52.322;5.926;2024-03-02T02:19:27;8.00;77.90
69189;DHT22;56302;52.322;5.926;2024-03-02T02:21:54;8.00;78.00
69189;DHT22;56302;52.322;5.926;2024-03-02T02:24:19;8.00;78.10
69189;DHT22;56302;52.322;5.926;2024-03-02T02:26:45;8.00;78.40
69189;DHT22;56302;52.322;5.926;2024-03-02T02:29:11;7.90;78.70
69189;DHT22;56302;52.322;5.926;2024-03-02T02:31:38;7.90;78.70
69189;DHT22;56302;52.322;5.926;2024-03-02T02:34:04;7.90;78.70
69189;DHT22;56302;52.322;5.926;2024-03-02T02:36:30;7.90;78.60
69189;DHT22;56302;52.322;5.926;2024-03-02T02:38:56;7.80;79.00
69189;DHT22;56302;52.322;5.926;2024-03-02T02:41:21;7.80;79.50
69189;DHT22;56302;52.322;5.926;2024-03-02T02:43:47;7.80;79.40
69189;DHT22;56302;52.322;5.926;2024-03-02T02:46:13;7.80;79.50
69189;DHT22;56302;52.322;5.926;2024-03-02T02:48:38;7.80;80.00
69189;DHT22;56302;52.322;5.926;2024-03-02T02:51:04;7.70;79.70
69189;DHT22;56302;52.322;5.926;2024-03-02T02:53:30;7.70;79.70
69189;DHT22;56302;52.322;5.926;2024-03-02T02:55:55;7.70;79.40
69189;DHT22;56302;52.322;5.926;2024-03-02T02:58:21;7.70;79.70
69189;DHT22;56302;52.322;5.926;2024-03-02T03:00:46;7.70;79.90
69189;DHT22;56302;52.322;5.926;2024-03-02T03:03:12;7.70;80.00
69189;DHT22;56302;52.322;5.926;2024-03-02T03:05:38;7.70;80.00
69189;DHT22;56302;52.322;5.926;2024-03-02T03:08:03;7.60;80.00
69189;DHT22;56302;52.322;5.926;2024-03-02T03:10:29;7.70;80.20
69189;DHT22;56302;52.322;5.926;2024-03-02T03:12:55;7.70;80.20
69189;DHT22;56302;52.322;5.926;2024-03-02T03:15:21;7.60;80.40
69189;DHT22;56302;52.322;5.926;2024-03-02T03:17:47;7.60;80.40
69189;DHT22;56302;52.322;5.926;2024-03-02T03:20:12;7.60;80.60
69189;DHT22;56302;52.322;5.926;2024-03-02T03:22:39;7.60;80.80
69189;DHT22;56302;52.322;5.926;2024-03-02T03:25:05;7.50;81.10
69189;DHT22;56302;52.322;5.926;2024-03-02T03:27:31;7.50;81.50
69189;DHT22;56302;52.322;5.926;2024-03-02T03:29:57;7.50;81.80
69189;DHT22;56302;52.322;5.926;2024-03-02T03:32:23;7.50;81.90
69189;DHT22;56302;52.322;5.926;2024-03-02T03:34:48;7.40;82.20
69189;DHT22;56302;52.322;5.926;2024-03-02T03:37:14;7.40;82.90
69189;DHT22;56302;52.322;5.926;2024-03-02T03:39:40;7.30;83.10
69189;DHT22;56302;52.322;5.926;2024-03-02T03:42:06;7.30;83.50
69189;DHT22;56302;52.322;5.926;2024-03-02T03:44:32;7.30;83.60
69189;DHT22;56302;52.322;5.926;2024-03-02T03:46:58;7.20;84.00
69189;DHT22;56302;52.322;5.926;2024-03-02T03:49:23;7.10;84.20
69189;DHT22;56302;52.322;5.926;2024-03-02T03:51:49;7.10;84.60
69189;DHT22;56302;52.322;5.926;2024-03-02T03:54:15;7.10;84.80
69189;DHT22;56302;52.322;5.926;2024-03-02T03:56:40;7.10;85.00
69189;DHT22;56302;52.322;5.926;2024-03-02T03:59:06;7.00;85.40
69189;DHT22;56302;52.322;5.926;2024-03-02T04:01:32;7.00;85.40
69189;DHT22;56302;52.322;5.926;2024-03-02T04:03:57;6.90;86.00
69189;DHT22;56302;52.322;5.926;2024-03-02T04:06:23;6.90;86.20
69189;DHT22;56302;52.322;5.926;2024-03-02T04:08:49;6.90;86.20
69189;DHT22;56302;52.322;5.926;2024-03-02T04:11:14;6.90;86.40
69189;DHT22;56302;52.322;5.926;2024-03-02T04:13:40;6.90;86.50
69189;DHT22;56302;52.322;5.926;2024-03-02T04:16:06;6.80;87.10
69189;DHT22;56302;52.322;5.926;2024-03-02T04:18:31;6.80;86.90
69189;DHT22;56302;52.322;5.926;2024-03-02T04:21:00;6.80;87.00
69189;DHT22;56302;52.322;5.926;2024-03-02T04:23:29;6.70;87.00
69189;DHT22;56302;52.322;5.926;2024-03-02T04:25:54;6.70;87.10
69189;DHT22;56302;52.322;5.926;2024-03-02T04:28:20;6.70;87.10
69189;DHT22;56302;52.322;5.926;2024-03-02T04:30:45;6.70;87.00
69189;DHT22;56302;52.322;5.926;2024-03-02T04:33:11;6.70;87.10
69189;DHT22;56302;52.322;5.926;2024-03-02T04:35:37;6.70;87.10
69189;DHT22;56302;52.322;5.926;2024-03-02T04:38:02;6.60;87.20
69189;DHT22;56302;52.322;5.926;2024-03-02T04:40:28;6.60;87.20
69189;DHT22;56302;52.322;5.926;2024-03-02T04:42:54;6.60;87.30
69189;DHT22;56302;52.322;5.926;2024-03-02T04:45:19;6.60;87.40
69189;DHT22;56302;52.322;5.926;2024-03-02T04:47:45;6.60;87.40
69189;DHT22;56302;52.322;5.926;2024-03-02T04:50:11;6.60;87.30
69189;DHT22;56302;52.322;5.926;2024-03-02T04:52:36;6.60;87.50
69189;DHT22;56302;52.322;5.926;2024-03-02T04:55:03;6.60;87.70
69189;DHT22;56302;52.322;5.926;2024-03-02T04:57:47;6.50;87.70
69189;DHT22;56302;52.322;5.926;2024-03-02T05:00:13;6.50;87.80
69189;DHT22;56302;52.322;5.926;2024-03-02T05:02:39;6.50;87.90
69189;DHT22;56302;52.322;5.926;2024-03-02T05:05:04;6.50;88.00
69189;DHT22;56302;52.322;5.926;2024-03-02T05:07:30;6.40;88.00
69189;DHT22;56302;52.322;5.926;2024-03-02T05:09:56;6.40;88.00
69189;DHT22;56302;52.322;5.926;2024-03-02T05:12:21;6.40;88.20
69189;DHT22;56302;52.322;5.926;2024-03-02T05:15:11;6.40;88.50
69189;DHT22;56302;52.322;5.926;2024-03-02T05:17:37;6.40;89.10
69189;DHT22;56302;52.322;5.926;2024-03-02T05:20:06;6.40;89.00
69189;DHT22;56302;52.322;5.926;2024-03-02T05:22:35;6.30;89.00
69189;DHT22;56302;52.322;5.926;2024-03-02T05:25:02;6.30;88.80
69189;DHT22;56302;52.322;5.926;2024-03-02T05:27:28;6.30;88.80
69189;DHT22;56302;52.322;5.926;2024-03-02T05:29:53;6.20;89.10
69189;DHT22;56302;52.322;5.926;2024-03-02T05:32:19;6.20;89.20
69189;DHT22;56302;52.322;5.926;2024-03-02T05:34:45;6.10;89.10
69189;DHT22;56302;52.322;5.926;2024-03-02T05:37:10;6.10;89.10
69189;DHT22;56302;52.322;5.926;2024-03-02T05:39:36;6.00;89.20
69189;DHT22;56302;52.322;5.926;2024-03-02T05:42:02;5.90;89.20
69189;DHT22;56302;52.322;5.926;2024-03-02T05:44:28;5.90;89.20
69189;DHT22;56302;52.322;5.926;2024-03-02T05:46:55;5.90;89.30
69189;DHT22;56302;52.322;5.926;2024-03-02T05:49:20;5.90;89.50
69189;DHT22;56302;52.322;5.926;2024-03-02T05:51:46;5.90;89.70
69189;DHT22;56302;52.322;5.926;2024-03-02T05:54:11;5.90;89.60
69189;DHT22;56302;52.322;5.926;2024-03-02T05:56:37;5.90;89.70
69189;DHT22;56302;52.322;5.926;2024-03-02T05:59:03;5.90;89.70
69189;DHT22;56302;52.322;5.926;2024-03-02T06:01:46;6.00;89.70
69189;DHT22;56302;52.322;5.926;2024-03-02T06:04:18;6.00;89.60
69189;DHT22;56302;52.322;5.926;2024-03-02T06:06:43;5.90;89.40
69189;DHT22;56302;52.322;5.926;2024-03-02T06:09:09;5.90;89.50
69189;DHT22;56302;52.322;5.926;2024-03-02T06:11:38;5.90;89.40
69189;DHT22;56302;52.322;5.926;2024-03-02T06:14:05;5.80;89.40
69189;DHT22;56302;52.322;5.926;2024-03-02T06:16:31;5.70;89.20
69189;DHT22;56302;52.322;5.926;2024-03-02T06:18:57;5.70;89.30
69189;DHT22;56302;52.322;5.926;2024-03-02T06:21:27;5.70;89.50
69189;DHT22;56302;52.322;5.926;2024-03-02T06:23:52;5.60;89.50
69189;DHT22;56302;52.322;5.926;2024-03-02T06:26:18;5.60;89.40
69189;DHT22;56302;52.322;5.926;2024-03-02T06:28:44;5.50;89.40
69189;DHT22;56302;52.322;5.926;2024-03-02T06:31:10;5.40;89.50
69189;DHT22;56302;52.322;5.926;2024-03-02T06:33:36;5.40;89.80
69189;DHT22;56302;52.322;5.926;2024-03-02T06:36:02;5.40;90.40
69189;DHT22;56302;52.322;5.926;2024-03-02T06:38:28;5.40;90.20
69189;DHT22;56302;52.322;5.926;2024-03-02T06:40:53;5.40;90.40
69189;DHT22;56302;52.322;5.926;2024-03-02T06:43:20;5.40;90.40
69189;DHT22;56302;52.322;5.926;2024-03-02T06:45:49;5.50;90.50
69189;DHT22;56302;52.322;5.926;2024-03-02T06:48:15;5.60;90.40
69189;DHT22;56302;52.322;5.926;2024-03-02T06:50:48;5.60;90.20
69189;DHT22;56302;52.322;5.926;2024-03-02T06:53:14;5.80;89.90
69189;DHT22;56302;52.322;5.926;2024-03-02T06:55:43;5.80;89.40
69189;DHT22;56302;52.322;5.926;2024-03-02T06:58:10;5.90;88.90
69189;DHT22;56302;52.322;5.926;2024-03-02T07:00:35;5.90;88.70
69189;DHT22;56302;52.322;5.926;2024-03-02T07:03:02;6.00;88.30
69189;DHT22;56302;52.322;5.926;2024-03-02T07:05:27;6.10;88.20
69189;DHT22;56302;52.322;5.926;2024-03-02T07:07:53;6.10;87.70
69189;DHT22;56302;52.322;5.926;2024-03-02T07:10:18;6.10;87.50
69189;DHT22;56302;52.322;5.926;2024-03-02T07:12:44;6.20;87.20
69189;DHT22;56302;52.322;5.926;2024-03-02T07:15:10;6.20;86.80
69189;DHT22;56302;52.322;5.926;2024-03-02T07:17:53;6.30;86.30
69189;DHT22;56302;52.322;5.926;2024-03-02T07:20:19;6.40;86.40
69189;DHT22;56302;52.322;5.926;2024-03-02T07:22:45;6.40;85.80
69189;DHT22;56302;52.322;5.926;2024-03-02T07:25:10;6.50;85.70
69189;DHT22;56302;52.322;5.926;2024-03-02T07:27:36;6.50;85.30
69189;DHT22;56302;52.322;5.926;2024-03-02T07:30:03;6.50;84.90
69189;DHT22;56302;52.322;5.926;2024-03-02T07:32:28;6.50;84.30
69189;DHT22;56302;52.322;5.926;2024-03-02T07:34:54;6.70;84.40
69189;DHT22;56302;52.322;5.926;2024-03-02T07:37:21;6.70;83.90
69189;DHT22;56302;52.322;5.926;2024-03-02T07:39:47;6.60;83.80
69189;DHT22;56302;52.322;5.926;2024-03-02T07:42:13;6.50;84.50
69189;DHT22;56302;52.322;5.926;2024-03-02T07:44:38;6.60;84.30
69189;DHT22;56302;52.322;5.926;2024-03-02T07:47:04;6.60;84.40
69189;DHT22;56302;52.322;5.926;2024-03-02T07:49:30;6.70;84.40
69189;DHT22;56302;52.322;5.926;2024-03-02T07:51:57;6.70;83.60
69189;DHT22;56302;52.322;5.926;2024-03-02T07:54:24;6.80;83.90
69189;DHT22;56302;52.322;5.926;2024-03-02T07:56:51;6.90;83.40
69189;DHT22;56302;52.322;5.926;2024-03-02T07:59:18;7.00;83.30
69189;DHT22;56302;52.322;5.926;2024-03-02T08:01:43;7.10;83.50
69189;DHT22;56302;52.322;5.926;2024-03-02T08:04:09;7.20;83.20
69189;DHT22;56302;52.322;5.926;2024-03-02T08:06:34;7.30;83.10
69189;DHT22;56302;52.322;5.926;2024-03-02T08:09:01;7.40;82.30
69189;DHT22;56302;52.322;5.926;2024-03-02T08:11:27;7.50;81.90
69189;DHT22;56302;52.322;5.926;2024-03-02T08:13:53;7.60;81.30
69189;DHT22;56302;52.322;5.926;2024-03-02T08:16:21;7.60;80.60
69189;DHT22;56302;52.322;5.926;2024-03-02T08:18:48;7.70;81.00
69189;DHT22;56302;52.322;5.926;2024-03-02T08:21:14;7.90;80.30
69189;DHT22;56302;52.322;5.926;2024-03-02T08:23:40;8.10;80.10
69189;DHT22;56302;52.322;5.926;2024-03-02T08:26:08;8.10;78.90
69189;DHT22;56302;52.322;5.926;2024-03-02T08:28:34;8.40;79.10
69189;DHT22;56302;52.322;5.926;2024-03-02T08:31:00;8.60;79.10
69189;DHT22;56302;52.322;5.926;2024-03-02T08:33:25;8.90;79.30
69189;DHT22;56302;52.322;5.926;2024-03-02T08:35:51;9.10;77.90
69189;DHT22;56302;52.322;5.926;2024-03-02T08:38:17;9.30;76.90
69189;DHT22;56302;52.322;5.926;2024-03-02T08:40:42;9.50;76.30
69189;DHT22;56302;52.322;5.926;2024-03-02T08:43:08;9.50;73.20
69189;DHT22;56302;52.322;5.926;2024-03-02T08:45:34;9.50;73.40
69189;DHT22;56302;52.322;5.926;2024-03-02T08:48:00;9.70;74.10
69189;DHT22;56302;52.322;5.926;2024-03-02T08:50:26;9.90;74.20
69189;DHT22;56302;52.322;5.926;2024-03-02T08:52:51;9.90;71.20
69189;DHT22;56302;52.322;5.926;2024-03-02T08:55:17;9.80;72.00
69189;DHT22;56302;52.322;5.926;2024-03-02T08:57:42;9.90;73.10
69189;DHT22;56302;52.322;5.926;2024-03-02T09:00:08;9.80;70.10
69189;DHT22;56302;52.322;5.926;2024-03-02T09:02:34;9.70;71.20
69189;DHT22;56302;52.322;5.926;2024-03-02T09:05:01;9.80;71.80
69189;DHT22;56302;52.322;5.926;2024-03-02T09:07:26;10.00;69.90
69189;DHT22;56302;52.322;5.926;2024-03-02T09:09:52;9.90;68.70
69189;DHT22;56302;52.322;5.926;2024-03-02T09:12:18;10.00;69.40
69189;DHT22;56302;52.322;5.926;2024-03-02T09:14:44;10.00;69.40
69189;DHT22;56302;52.322;5.926;2024-03-02T09:17:10;10.10;67.10
69189;DHT22;56302;52.322;5.926;2024-03-02T09:19:37;10.20;69.00
69189;DHT22;56302;52.322;5.926;2024-03-02T09:22:02;10.40;68.10
69189;DHT22;56302;52.322;5.926;2024-03-02T09:24:32;10.50;68.10
69189;DHT22;56302;52.322;5.926;2024-03-02T09:26:59;10.60;67.90
69189;DHT22;56302;52.322;5.926;2024-03-02T09:29:24;10.50;66.90
69189;DHT22;56302;52.322;5.926;2024-03-02T09:31:50;10.60;68.20
69189;DHT22;56302;52.322;5.926;2024-03-02T09:34:16;10.60;67.30
69189;DHT22;56302;52.322;5.926;2024-03-02T09:36:43;10.80;66.80
69189;DHT22;56302;52.322;5.926;2024-03-02T09:39:09;10.80;66.40
69189;DHT22;56302;52.322;5.926;2024-03-02T09:41:37;10.90;67.00
69189;DHT22;56302;52.322;5.926;2024-03-02T09:44:05;11.10;66.80
69189;DHT22;56302;52.322;5.926;2024-03-02T09:46:31;11.10;65.70
69189;DHT22;56302;52.322;5.926;2024-03-02T09:48:56;11.00;63.80
69189;DHT22;56302;52.322;5.926;2024-03-02T09:51:23;10.90;64.00
69189;DHT22;56302;52.322;5.926;2024-03-02T09:53:49;11.00;64.80
69189;DHT22;56302;52.322;5.926;2024-03-02T09:56:15;10.90;63.00
69189;DHT22;56302;52.322;5.926;2024-03-02T09:58:47;10.80;64.10
69189;DHT22;56302;52.322;5.926;2024-03-02T10:01:12;10.90;64.10
69189;DHT22;56302;52.322;5.926;2024-03-02T10:03:38;10.80;64.10
69189;DHT22;56302;52.322;5.926;2024-03-02T10:06:20;10.80;62.90
69189;DHT22;56302;52.322;5.926;2024-03-02T10:08:46;10.60;62.80
69189;DHT22;56302;52.322;5.926;2024-03-02T10:11:26;10.70;63.80
69189;DHT22;56302;52.322;5.926;2024-03-02T10:14:14;10.80;64.10
69189;DHT22;56302;52.322;5.926;2024-03-02T10:16:44;10.80;64.40
69189;DHT22;56302;52.322;5.926;2024-03-02T10:21:51;11.00;64.50
69189;DHT22;56302;52.322;5.926;2024-03-02T10:24:17;11.00;62.30
69189;DHT22;56302;52.322;5.926;2024-03-02T10:26:44;11.00;62.20
69189;DHT22;56302;52.322;5.926;2024-03-02T10:29:10;10.90;61.10
69189;DHT22;56302;52.322;5.926;2024-03-02T10:31:41;11.00;62.40
69189;DHT22;56302;52.322;5.926;2024-03-02T10:34:10;11.20;62.10
69189;DHT22;56302;52.322;5.926;2024-03-02T10:36:37;11.40;62.60
69189;DHT22;56302;52.322;5.926;2024-03-02T10:39:04;11.40;61.90
69189;DHT22;56302;52.322;5.926;2024-03-02T10:41:37;11.30;60.30
69189;DHT22;56302;52.322;5.926;2024-03-02T10:44:04;11.30;59.80
69189;DHT22;56302;52.322;5.926;2024-03-02T10:46:31;11.40;60.20
69189;DHT22;56302;52.322;5.926;2024-03-02T10:48:58;11.50;61.20
69189;DHT22;56302;52.322;5.926;2024-03-02T10:51:28;11.70;59.90
69189;DHT22;56302;52.322;5.926;2024-03-02T10:53:57;11.70;60.80
69189;DHT22;56302;52.322;5.926;2024-03-02T10:56:44;11.80;61.10
69189;DHT22;56302;52.322;5.926;2024-03-02T11:01:58;11.90;60.20
69189;DHT22;56302;52.322;5.926;2024-03-02T11:04:26;12.00;60.70
69189;DHT22;56302;52.322;5.926;2024-03-02T11:06:56;12.00;58.20
69189;DHT22;56302;52.322;5.926;2024-03-02T11:09:26;11.90;58.10
69189;DHT22;56302;52.322;5.926;2024-03-02T11:12:31;12.10;58.60
69189;DHT22;56302;52.322;5.926;2024-03-02T11:15:05;11.90;57.00
69189;DHT22;56302;52.322;5.926;2024-03-02T11:17:35;12.00;56.90
69189;DHT22;56302;52.322;5.926;2024-03-02T11:20:03;12.10;57.90
69189;DHT22;56302;52.322;5.926;2024-03-02T11:22:29;12.20;57.70
69189;DHT22;56302;52.322;5.926;2024-03-02T11:24:55;12.40;58.00
69189;DHT22;56302;52.322;5.926;2024-03-02T11:33:10;12.50;57.60
69189;DHT22;56302;52.322;5.926;2024-03-02T11:35:36;12.80;59.00
69189;DHT22;56302;52.322;5.926;2024-03-02T11:38:06;13.10;56.30
69189;DHT22;56302;52.322;5.926;2024-03-02T11:40:32;13.20;56.70
69189;DHT22;56302;52.322;5.926;2024-03-02T11:42:59;13.10;56.30
69189;DHT22;56302;52.322;5.926;2024-03-02T11:45:28;12.70;55.70
69189;DHT22;56302;52.322;5.926;2024-03-02T11:47:56;12.60;55.90
69189;DHT22;56302;52.322;5.926;2024-03-02T11:50:39;13.00;56.50
69189;DHT22;56302;52.322;5.926;2024-03-02T11:53:06;13.00;57.50
69189;DHT22;56302;52.322;5.926;2024-03-02T11:55:35;13.10;55.40
69189;DHT22;56302;52.322;5.926;2024-03-02T11:58:03;12.60;58.70
69189;DHT22;56302;52.322;5.926;2024-03-02T12:00:29;12.90;57.70
69189;DHT22;56302;52.322;5.926;2024-03-02T12:03:02;13.20;59.10
69189;DHT22;56302;52.322;5.926;2024-03-02T12:05:30;13.20;56.60
69189;DHT22;56302;52.322;5.926;2024-03-02T12:08:00;13.20;57.00
69189;DHT22;56302;52.322;5.926;2024-03-02T12:10:26;13.40;54.20
69189;DHT22;56302;52.322;5.926;2024-03-02T12:13:18;12.90;58.30
69189;DHT22;56302;52.322;5.926;2024-03-02T12:15:44;12.60;59.20
69189;DHT22;56302;52.322;5.926;2024-03-02T12:18:09;12.60;60.40
69189;DHT22;56302;52.322;5.926;2024-03-02T12:20:35;12.70;59.00
69189;DHT22;56302;52.322;5.926;2024-03-02T12:23:02;12.60;60.40
69189;DHT22;56302;52.322;5.926;2024-03-02T12:25:28;12.50;59.40
69189;DHT22;56302;52.322;5.926;2024-03-02T12:27:56;12.40;59.30
69189;DHT22;56302;52.322;5.926;2024-03-02T12:30:22;12.60;59.10
69189;DHT22;56302;52.322;5.926;2024-03-02T12:32:48;12.90;58.20
69189;DHT22;56302;52.322;5.926;2024-03-02T12:35:14;12.70;57.70
69189;DHT22;56302;52.322;5.926;2024-03-02T12:37:47;12.60;58.90
69189;DHT22;56302;52.322;5.926;2024-03-02T12:40:16;12.40;59.60
69189;DHT22;56302;52.322;5.926;2024-03-02T12:42:44;12.60;58.50
69189;DHT22;56302;52.322;5.926;2024-03-02T12:45:11;12.60;58.90
69189;DHT22;56302;52.322;5.926;2024-03-02T12:47:37;12.60;60.50
69189;DHT22;56302;52.322;5.926;2024-03-02T12:50:04;12.50;58.60
69189;DHT22;56302;52.322;5.926;2024-03-02T12:52:30;12.60;58.80
69189;DHT22;56302;52.322;5.926;2024-03-02T12:54:59;12.30;58.30
69189;DHT22;56302;52.322;5.926;2024-03-02T12:57:34;12.30;58.10
69189;DHT22;56302;52.322;5.926;2024-03-02T13:00:01;12.20;61.50
69189;DHT22;56302;52.322;5.926;2024-03-02T13:02:34;12.00;61.90
69189;DHT22;56302;52.322;5.926;2024-03-02T13:05:00;11.90;62.90
69189;DHT22;56302;52.322;5.926;2024-03-02T13:07:26;12.00;63.50
69189;DHT22;56302;52.322;5.926;2024-03-02T13:09:52;12.10;62.40
69189;DHT22;56302;52.322;5.926;2024-03-02T13:12:19;12.00;62.70
69189;DHT22;56302;52.322;5.926;2024-03-02T13:14:48;12.00;63.20
69189;DHT22;56302;52.322;5.926;2024-03-02T13:17:15;11.90;61.50
69189;DHT22;56302;52.322;5.926;2024-03-02T13:19:58;11.80;64.00
69189;DHT22;56302;52.322;5.926;2024-03-02T13:22:25;11.90;63.70
69189;DHT22;56302;52.322;5.926;2024-03-02T13:24:51;11.90;64.60
69189;DHT22;56302;52.322;5.926;2024-03-02T13:27:17;11.90;63.60
69189;DHT22;56302;52.322;5.926;2024-03-02T13:29:48;11.80;64.10
69189;DHT22;56302;52.322;5.926;2024-03-02T13:32:15;11.90;64.50
69189;DHT22;56302;52.322;5.926;2024-03-02T13:34:40;12.00;64.00
69189;DHT22;56302;52.322;5.926;2024-03-02T13:37:06;12.10;63.40
69189;DHT22;56302;52.322;5.926;2024-03-02T13:39:32;12.20;63.80
69189;DHT22;56302;52.322;5.926;2024-03-02T13:41:58;12.40;63.90
69189;DHT22;56302;52.322;5.926;2024-03-02T13:44:31;12.50;62.20
69189;DHT22;56302;52.322;5.926;2024-03-02T13:46:56;12.50;62.00
69189;DHT22;56302;52.322;5.926;2024-03-02T13:49:23;12.50;61.60
69189;DHT22;56302;52.322;5.926;2024-03-02T13:51:49;12.50;61.60
69189;DHT22;56302;52.322;5.926;2024-03-02T13:54:15;12.40;62.50
69189;DHT22;56302;52.322;5.926;2024-03-02T13:56:41;12.40;61.00
69189;DHT22;56302;52.322;5.926;2024-03-02T13:59:07;12.40;60.70
69189;DHT22;56302;52.322;5.926;2024-03-02T14:01:33;12.40;59.40
69189;DHT22;56302;52.322;5.926;2024-03-02T14:03:59;12.40;60.80
69189;DHT22;56302;52.322;5.926;2024-03-02T14:06:24;12.50;60.40
69189;DHT22;56302;52.322;5.926;2024-03-02T14:08:52;12.50;60.10
69189;DHT22;56302;52.322;5.926;2024-03-02T14:11:18;12.50;60.60
69189;DHT22;56302;52.322;5.926;2024-03-02T14:13:44;12.50;60.20
69189;DHT22;56302;52.322;5.926;2024-03-02T14:16:15;12.50;58.50
69189;DHT22;56302;52.322;5.926;2024-03-02T14:18:41;12.60;57.90
69189;DHT22;56302;52.322;5.926;2024-03-02T14:21:07;12.70;56.60
69189;DHT22;56302;52.322;5.926;2024-03-02T14:23:33;12.70;60.10
69189;DHT22;56302;52.322;5.926;2024-03-02T14:25:58;12.80;57.20
69189;DHT22;56302;52.322;5.926;2024-03-02T14:28:24;12.90;57.10
69189;DHT22;56302;52.322;5.926;2024-03-02T14:30:50;12.90;58.20
69189;DHT22;56302;52.322;5.926;2024-03-02T14:33:16;12.80;58.20
69189;DHT22;56302;52.322;5.926;2024-03-02T14:35:42;12.70;57.60
69189;DHT22;56302;52.322;5.926;2024-03-02T14:38:08;12.60;60.20
69189;DHT22;56302;52.322;5.926;2024-03-02T14:40:33;12.60;59.90
69189;DHT22;56302;52.322;5.926;2024-03-02T14:42:59;12.60;60.40
69189;DHT22;56302;52.322;5.926;2024-03-02T14:45:24;12.50;58.80
69189;DHT22;56302;52.322;5.926;2024-03-02T14:47:51;12.60;60.10
69189;DHT22;56302;52.322;5.926;2024-03-02T14:50:17;12.70;60.00
69189;DHT22;56302;52.322;5.926;2024-03-02T14:52:44;12.70;59.50
69189;DHT22;56302;52.322;5.926;2024-03-02T14:55:11;12.70;60.00
69189;DHT22;56302;52.322;5.926;2024-03-02T14:57:36;12.50;60.60
69189;DHT22;56302;52.322;5.926;2024-03-02T15:00:02;12.50;59.90
69189;DHT22;56302;52.322;5.926;2024-03-02T15:02:28;12.60;60.50
69189;DHT22;56302;52.322;5.926;2024-03-02T15:04:54;12.70;60.70
69189;DHT22;56302;52.322;5.926;2024-03-02T15:07:20;12.70;61.30
69189;DHT22;56302;52.322;5.926;2024-03-02T15:09:46;12.60;59.90
69189;DHT22;56302;52.322;5.926;2024-03-02T15:12:11;12.50;61.10
69189;DHT22;56302;52.322;5.926;2024-03-02T15:14:40;12.50;61.40
69189;DHT22;56302;52.322;5.926;2024-03-02T15:17:14;12.40;61.60
69189;DHT22;56302;52.322;5.926;2024-03-02T15:19:44;12.40;61.30
69189;DHT22;56302;52.322;5.926;2024-03-02T15:22:10;12.30;60.80
69189;DHT22;56302;52.322;5.926;2024-03-02T15:24:36;12.30;62.00
69189;DHT22;56302;52.322;5.926;2024-03-02T15:27:02;12.40;62.50
69189;DHT22;56302;52.322;5.926;2024-03-02T15:29:34;12.40;61.70
69189;DHT22;56302;52.322;5.926;2024-03-02T15:32:01;12.40;61.20
69189;DHT22;56302;52.322;5.926;2024-03-02T15:34:28;12.30;62.10
69189;DHT22;56302;52.322;5.926;2024-03-02T15:36:54;12.20;61.60
69189;DHT22;56302;52.322;5.926;2024-03-02T15:39:20;12.20;61.80
69189;DHT22;56302;52.322;5.926;2024-03-02T15:41:45;12.20;61.10
69189;DHT22;56302;52.322;5.926;2024-03-02T15:44:11;12.20;61.60
69189;DHT22;56302;52.322;5.926;2024-03-02T15:46:37;12.20;61.90
69189;DHT22;56302;52.322;5.926;2024-03-02T15:49:03;12.20;61.90
69189;DHT22;56302;52.322;5.926;2024-03-02T15:51:31;12.00;62.80
69189;DHT22;56302;52.322;5.926;2024-03-02T15:53:56;12.00;62.70